Dades meteomassalio
Diari Summary for Abril 28, 2017 Units:  Metric    English   Both
« Previous Day
Next Day »
Diari Semanal Mensual Anual Personalitzat
  Maxima: Minima: Mijana:
Temperatura: -17.8 °C -15.6 °C -12.2 °C
Rosada: -17.8 °C -18.1 °C -17.1 °C
Humitat: Humidity % 34 % 56 %
Velocitat del vent: 0 km/h 0 km/h 15.3 km/h
Racha vent: 0 km/h - -
Vent:- - SW
Pressio: 0 hPa 34371.3 hPa -
Pluja: 0 mm    
Historical Graphs
 
 
Tabular Data for Abril 28, 2017
Time Temperature Dew Point Pressure Wind Wind Speed Wind Gust Humidity Rainfall Rate (Hourly) solar Conditions
-17.8 °C -17.8 °C 0 hPa Calm     Humidity % 0 mm SolarRadiationWatts/m^2 W/m2 Conditions
00:00 -13.6 °C -18.1 °C 34496.6 hPa WNW 38.8 km/h 38.8 km/h 56 % 0 mm 0.0 W/m2 CLR
00:05 -13.7 °C -18.1 °C 34510.1 hPa WNW 32.8 km/h 32.8 km/h 57 % 0 mm 0.0 W/m2 RA
00:10 -13.7 °C -18.1 °C 34510.1 hPa WNW 33.6 km/h 33.6 km/h 57 % 0 mm 0.0 W/m2 CLR
00:15 -13.7 °C -18 °C 34510.1 hPa West 29.8 km/h 29.8 km/h 58 % 0 mm 0.0 W/m2 CLR
00:20 -13.8 °C -17.9 °C 34510.1 hPa WNW 35.7 km/h 35.7 km/h 59 % 0 mm 0.0 W/m2 CLR
00:25 -13.8 °C -18 °C 34510.1 hPa WNW 32.8 km/h 32.8 km/h 59 % 0 mm 0.0 W/m2 CLR
00:30 -13.8 °C -18 °C 34510.1 hPa WNW 23.8 km/h 23.8 km/h 59 % 0 mm 0.0 W/m2 CLR
00:35 -13.9 °C -18.1 °C 34510.1 hPa West 26.9 km/h 26.9 km/h 59 % 0 mm 0.0 W/m2 CLR
00:40 -13.9 °C -17.9 °C 34510.1 hPa WNW 29.8 km/h 29.8 km/h 60 % 0 mm 0.0 W/m2 CLR
00:45 -13.9 °C -17.8 °C 34510.1 hPa West 26.9 km/h 26.9 km/h 61 % 0 mm 0.0 W/m2 CLR
00:50 -14 °C -17.9 °C 34510.1 hPa West 29.8 km/h 29.8 km/h 61 % 0 mm 0.0 W/m2 CLR
00:55 -14 °C -17.9 °C 34510.1 hPa WSW 29.8 km/h 29.8 km/h 61 % 0 mm 0.0 W/m2 CLR
01:00 -14.1 °C -17.8 °C 34510.1 hPa West 29.8 km/h 29.8 km/h 62 % 0 mm 0.0 W/m2 CLR
01:05 -14.1 °C -17.8 °C 34510.1 hPa West 29.8 km/h 29.8 km/h 62 % 0 mm 0.0 W/m2 CLR
01:10 -14.1 °C -17.9 °C 34520.3 hPa WSW 29.8 km/h 29.8 km/h 62 % 0 mm 0.0 W/m2 CLR
01:15 -14.1 °C -17.9 °C 34520.3 hPa West 23.8 km/h 23.8 km/h 62 % 0 mm 0.0 W/m2 CLR
01:20 -14.2 °C -17.9 °C 34520.3 hPa West 15 km/h 15 km/h 62 % 0 mm 0.0 W/m2 CLR
01:25 -14.2 °C -17.9 °C 34520.3 hPa WSW 26.9 km/h 26.9 km/h 63 % 0 mm 0.0 W/m2 CLR
01:30 -14.3 °C -17.9 °C 34520.3 hPa West 25.9 km/h 25.9 km/h 63 % 0 mm 0.0 W/m2 CLR
01:35 -14.3 °C -17.9 °C 34520.3 hPa West 23.8 km/h 23.8 km/h 63 % 0 mm 0.0 W/m2 CLR
01:40 -14.3 °C -17.9 °C 34533.8 hPa West 26.9 km/h 26.9 km/h 63 % 0 mm 0.0 W/m2 CLR
01:45 -14.3 °C -17.9 °C 34533.8 hPa West 20.9 km/h 20.9 km/h 63 % 0 mm 0.0 W/m2 CLR
01:50 -14.3 °C -17.8 °C 34533.8 hPa WSW 29.8 km/h 29.8 km/h 64 % 0 mm 0.0 W/m2 CLR
01:55 -14.3 °C -17.9 °C 34533.8 hPa West 41.7 km/h 41.7 km/h 63 % 0 mm 0.0 W/m2 CLR
02:00 -14.3 °C -17.9 °C 34533.8 hPa WSW 32.8 km/h 32.8 km/h 64 % 0 mm 0.0 W/m2 CLR
02:05 -14.4 °C -17.9 °C 34520.3 hPa West 36.2 km/h 36.2 km/h 64 % 0 mm 0.0 W/m2 CLR
02:10 -14.4 °C -17.9 °C 34520.3 hPa West 29.8 km/h 29.8 km/h 64 % 0 mm 0.0 W/m2 CLR
02:12 -14.4 °C -17.9 °C 34520.3 hPa WSW 29.8 km/h 29.8 km/h 64 % 0 mm 0.0 W/m2 CLR
02:17 -14.4 °C -17.9 °C 34520.3 hPa West 35.7 km/h 35.7 km/h 64 % 0 mm 0.0 W/m2 CLR
02:22 -14.4 °C -17.9 °C 34520.3 hPa WSW 32.8 km/h 32.8 km/h 64 % 0 mm 0.0 W/m2 CLR
02:27 -14.4 °C -17.9 °C 34520.3 hPa WSW 41.7 km/h 41.7 km/h 64 % 0 mm 0.0 W/m2 CLR
02:32 -14.5 °C -17.9 °C 34520.3 hPa West 41.4 km/h 41.4 km/h 65 % 0 mm 0.0 W/m2 CLR
02:37 -14.5 °C -17.9 °C 34520.3 hPa West 35.7 km/h 35.7 km/h 65 % 0 mm 0.0 W/m2 CLR
02:42 -14.5 °C -17.9 °C 34520.3 hPa WNW 44.7 km/h 44.7 km/h 65 % 0 mm 0.0 W/m2 CLR
02:47 -14.5 °C -17.9 °C 34520.3 hPa West 35.7 km/h 35.7 km/h 65 % 0 mm 0.0 W/m2 CLR
02:52 -14.6 °C -17.9 °C 34520.3 hPa West 35.7 km/h 35.7 km/h 65 % 0 mm 0.0 W/m2 CLR
02:57 -14.6 °C -17.9 °C 34520.3 hPa West 33.6 km/h 33.6 km/h 66 % 0 mm 0.0 W/m2 CLR
03:02 -14.6 °C -17.9 °C 34520.3 hPa West 32.8 km/h 32.8 km/h 66 % 0 mm 0.0 W/m2 CLR
03:07 -14.7 °C -17.9 °C 34520.3 hPa West 29.8 km/h 29.8 km/h 66 % 0 mm 0.0 W/m2 CLR
03:12 -14.7 °C -17.9 °C 34520.3 hPa West 26.9 km/h 26.9 km/h 66 % 0 mm 0.0 W/m2 CLR
03:17 -14.7 °C -17.9 °C 34520.3 hPa WSW 29.8 km/h 29.8 km/h 66 % 0 mm 0.0 W/m2 CLR
03:22 -14.8 °C -17.9 °C 34520.3 hPa West 32.8 km/h 32.8 km/h 67 % 0 mm 0.0 W/m2 CLR
03:27 -14.8 °C -17.9 °C 34520.3 hPa West 29.8 km/h 29.8 km/h 67 % 0 mm 0.0 W/m2 CLR
03:32 -14.8 °C -17.9 °C 34520.3 hPa West 26.9 km/h 26.9 km/h 67 % 0 mm 0.0 W/m2 CLR
03:37 -14.9 °C -17.9 °C 34520.3 hPa WSW 20.9 km/h 20.9 km/h 68 % 0 mm 0.0 W/m2 CLR
03:42 -14.9 °C -17.9 °C 34520.3 hPa West 9 km/h 9 km/h 68 % 0 mm 0.0 W/m2 CLR
03:47 -15.1 °C -17.9 °C 34520.3 hPa West 11.9 km/h 11.9 km/h 69 % 0 mm 0.0 W/m2 CLR
03:52 -15.1 °C -17.9 °C 34520.3 hPa WSW 15 km/h 15 km/h 70 % 0 mm 0.0 W/m2 CLR
03:57 -15.2 °C -17.9 °C 34520.3 hPa WSW 17.9 km/h 17.9 km/h 70 % 0 mm 0.0 W/m2 CLR
04:02 -15.2 °C -17.9 °C 34533.8 hPa WSW 9 km/h 9 km/h 71 % 0 mm 0.0 W/m2 CLR
04:07 -15.2 °C -17.9 °C 34533.8 hPa WSW 15 km/h 15 km/h 71 % 0 mm 0.0 W/m2 CLR
04:12 -15.2 °C -17.9 °C 34533.8 hPa SW 11.9 km/h 11.9 km/h 71 % 0 mm 0.0 W/m2 CLR
04:17 -15.3 °C -17.8 °C 34533.8 hPa SW 9 km/h 9 km/h 72 % 0 mm 0.0 W/m2 CLR
04:22 -15.3 °C -17.9 °C 34533.8 hPa SW 9 km/h 9 km/h 72 % 0 mm 0.0 W/m2 CLR
04:27 -15.4 °C -17.8 °C 34533.8 hPa WSW 9 km/h 9.7 km/h 73 % 0 mm 0.0 W/m2 CLR
04:32 -15.4 °C -17.9 °C 34533.8 hPa WSW 11.9 km/h 11.9 km/h 73 % 0 mm 0.0 W/m2 CLR
04:37 -15.5 °C -17.9 °C 34533.8 hPa WSW 15.6 km/h 15.6 km/h 73 % 0 mm 0.0 W/m2 CLR
04:43 -15.5 °C -17.9 °C 34533.8 hPa West 17.9 km/h 17.9 km/h 74 % 0 mm 0.0 W/m2 CLR
04:48 -15.5 °C -17.8 °C 34533.8 hPa WSW 15 km/h 15 km/h 74 % 0 mm 0.0 W/m2 CLR
04:53 -15.5 °C -17.9 °C 34533.8 hPa WSW 23.8 km/h 23.8 km/h 74 % 0 mm 0.0 W/m2 CLR
04:58 -15.5 °C -17.9 °C 34533.8 hPa WSW 9 km/h 9 km/h 74 % 0 mm 0.0 W/m2 CLR
05:03 -15.6 °C -17.8 °C 34533.8 hPa WSW 17.9 km/h 17.9 km/h 75 % 0 mm 0.0 W/m2 CLR
05:08 -15.5 °C -17.7 °C 34533.8 hPa West 26.9 km/h 26.9 km/h 75 % 0 mm 0.0 W/m2 CLR
05:13 -15.4 °C -17.7 °C 34533.8 hPa WSW 26.9 km/h 26.9 km/h 74 % 0 mm 0.0 W/m2 CLR
05:18 -15.3 °C -17.8 °C 34533.8 hPa West 9 km/h 9.8 km/h 73 % 0 mm 0.0 W/m2 CLR
05:23 -15.3 °C -17.8 °C 34533.8 hPa West 15 km/h 15 km/h 73 % 0 mm 0.0 W/m2 CLR
05:28 -15.4 °C -17.8 °C 34533.8 hPa WSW 15 km/h 15 km/h 73 % 0 mm 0.0 W/m2 CLR
05:33 -15.4 °C -17.8 °C 34533.8 hPa WSW 17.9 km/h 17.9 km/h 74 % 0 mm 0.0 W/m2 CLR
05:38 -15.4 °C -17.8 °C 34533.8 hPa WSW 9 km/h 9 km/h 74 % 0 mm 0.0 W/m2 CLR
05:43 -15.4 °C -17.8 °C 34533.8 hPa WSW 10.3 km/h 10.3 km/h 74 % 0 mm 0.0 W/m2 CLR
05:48 -15.4 °C -17.7 °C 34533.8 hPa West 20.8 km/h 20.8 km/h 74 % 0 mm 0.0 W/m2 CLR
05:53 -15.4 °C -17.8 °C 34533.8 hPa WSW 18.2 km/h 18.2 km/h 73 % 0 mm 0.0 W/m2 CLR
05:58 -15.4 °C -17.8 °C 34533.8 hPa SW 20.9 km/h 20.9 km/h 73 % 0 mm 0.0 W/m2 CLR
06:03 -15.4 °C -17.8 °C 34544 hPa West 15.6 km/h 18.3 km/h 74 % 0 mm 0.0 W/m2 CLR
06:08 -15.4 °C -17.7 °C 34533.8 hPa WSW 18.2 km/h 18.2 km/h 74 % 0 mm 0.0 W/m2 CLR
06:09 -15.4 °C -17.7 °C 34533.8 hPa WSW 17.9 km/h 17.9 km/h 74 % 0 mm 0.0 W/m2 CLR
06:14 -15.4 °C -17.8 °C 34544 hPa WSW 20.9 km/h 20.9 km/h 74 % 0 mm 0.0 W/m2 CLR
06:19 -15.4 °C -17.7 °C 34544 hPa WSW 23.8 km/h 23.8 km/h 74 % 0 mm 0.0 W/m2 CLR
06:24 -15.4 °C -17.7 °C 34544 hPa WSW 26.9 km/h 26.9 km/h 74 % 0 mm 0.0 W/m2 CLR
06:29 -15.4 °C -17.7 °C 34544 hPa WSW 26.9 km/h 26.9 km/h 74 % 0 mm 0.0 W/m2 CLR
06:34 -15.4 °C -17.8 °C 34544 hPa WSW 15 km/h 15 km/h 74 % 0 mm 0.0 W/m2 CLR
06:39 -15.5 °C -17.8 °C 34544 hPa WSW 15 km/h 15 km/h 74 % 0 mm 0.0 W/m2 CLR
06:44 -15.4 °C -17.8 °C 34544 hPa WSW 20.9 km/h 20.9 km/h 74 % 0 mm 0.0 W/m2 CLR
06:49 -15.4 °C -17.8 °C 34544 hPa WSW 26.9 km/h 26.9 km/h 74 % 0 mm 0.0 W/m2 CLR
06:54 -15.4 °C -17.8 °C 34544 hPa WSW 29.8 km/h 29.8 km/h 74 % 0 mm 0.0 W/m2 CLR
06:59 -15.4 °C -17.8 °C 34544 hPa WSW 20.9 km/h 20.9 km/h 74 % 0 mm 7.0 W/m2 CLR
07:04 -15.4 °C -17.8 °C 34554.1 hPa WSW 17.9 km/h 17.9 km/h 74 % 0 mm 11.0 W/m2 OVC
07:09 -15.4 °C -17.8 °C 34554.1 hPa WSW 29.8 km/h 29.8 km/h 74 % 0 mm 12.0 W/m2 BKN
07:14 -15.4 °C -17.7 °C 34554.1 hPa SW 17.9 km/h 17.9 km/h 74 % 0 mm 16.0 W/m2 BKN
07:19 -15.4 °C -17.7 °C 34554.1 hPa WSW 17.9 km/h 17.9 km/h 74 % 0 mm 21.0 W/m2 BKN
07:24 -15.4 °C -17.7 °C 34554.1 hPa WSW 9 km/h 9 km/h 74 % 0 mm 26.0 W/m2 BKN
07:29 -15.4 °C -17.7 °C 34554.1 hPa WSW 9 km/h 9 km/h 74 % 0 mm 30.0 W/m2 BKN
07:34 -15.4 °C -17.7 °C 34554.1 hPa SW 12.9 km/h 12.9 km/h 75 % 0 mm 33.0 W/m2 BKN
07:39 -15.4 °C -17.7 °C 34554.1 hPa WSW 15 km/h 15 km/h 75 % 0 mm 39.0 W/m2 BKN
07:44 -15.5 °C -17.7 °C 34554.1 hPa WSW 11.9 km/h 11.9 km/h 75 % 0 mm 51.0 W/m2 SCT
07:49 -15.4 °C -17.7 °C 34554.1 hPa WSW 11.9 km/h 11.9 km/h 75 % 0 mm 58.0 W/m2 SCT
07:54 -15.4 °C -17.7 °C 34554.1 hPa WSW 12.9 km/h 12.9 km/h 75 % 0 mm 65.0 W/m2 SCT
07:59 -15.4 °C -17.6 °C 34554.1 hPa WSW 10.3 km/h 10.3 km/h 75 % 0 mm 76.0 W/m2 FEW
08:04 -15.3 °C -17.6 °C 34554.1 hPa SW 10.3 km/h 10.3 km/h 75 % 0 mm 91.0 W/m2 FEW
08:09 -15.3 °C -17.6 °C 34554.1 hPa SW 10.3 km/h 10.3 km/h 75 % 0 mm 77.0 W/m2 FEW
08:14 -15.3 °C -17.6 °C 34554.1 hPa WSW 9 km/h 9 km/h 75 % 0 mm 88.0 W/m2 FEW
08:19 -15.2 °C -17.5 °C 34554.1 hPa WSW 10.3 km/h 10.3 km/h 75 % 0 mm 88.0 W/m2 CLR
08:24 -15.2 °C -17.4 °C 34554.1 hPa WSW 6 km/h 6 km/h 75 % 0 mm 192.0 W/m2 CLR
08:29 -15 °C -17.4 °C 34554.1 hPa West 20.9 km/h 20.9 km/h 73 % 0 mm 174.0 W/m2 CLR
08:34 -14.9 °C -17.4 °C 34554.1 hPa WSW 18.2 km/h 18.2 km/h 72 % 0 mm 134.0 W/m2 CLR
08:39 -14.8 °C -17.4 °C 34554.1 hPa West 20.9 km/h 20.9 km/h 71 % 0 mm 190.0 W/m2 CLR
08:44 -14.7 °C -17.5 °C 34554.1 hPa WNW 11.9 km/h 11.9 km/h 70 % 0 mm 251.0 W/m2 CLR
08:49 -14.6 °C -17.4 °C 34554.1 hPa NW 20.8 km/h 20.8 km/h 70 % 0 mm 278.0 W/m2 CLR
08:54 -14.4 °C -17.3 °C 34554.1 hPa West 29.8 km/h 29.8 km/h 69 % 0 mm 336.0 W/m2 CLR
08:59 -14.3 °C -17.4 °C 34554.1 hPa WSW 26.9 km/h 26.9 km/h 68 % 0 mm 304.0 W/m2 CLR
09:04 -14.3 °C -17.3 °C 34544 hPa WSW 15.6 km/h 15.6 km/h 68 % 0 mm 338.0 W/m2 CLR
09:09 -14.2 °C -17.2 °C 34544 hPa SW 11.9 km/h 11.9 km/h 68 % 0 mm 234.0 W/m2 CLR
09:14 -14.1 °C -17.3 °C 34544 hPa WSW 9 km/h 9 km/h 67 % 0 mm 176.0 W/m2 CLR
09:19 -14.2 °C -17.3 °C 34544 hPa SW 11.9 km/h 11.9 km/h 67 % 0 mm 162.0 W/m2 CLR
09:24 -14.2 °C -17.3 °C 34544 hPa West 6 km/h   67 % 0 mm 236.0 W/m2 CLR
09:29 -14.1 °C -17.3 °C 34544 hPa WSW 9 km/h 9 km/h 67 % 0 mm 223.0 W/m2 CLR
09:35 -14.1 °C -17.3 °C 34544 hPa WSW 17.9 km/h 17.9 km/h 67 % 0 mm 415.0 W/m2 CLR
09:40 -14 °C -17.2 °C 34544 hPa NW 18.2 km/h 18.2 km/h 67 % 0 mm 417.0 W/m2 CLR
09:45 -13.8 °C -17.1 °C 34544 hPa SW 20.9 km/h 20.9 km/h 66 % 0 mm 380.0 W/m2 CLR
09:50 -13.8 °C -17.3 °C 34544 hPa SW 9 km/h 10.1 km/h 65 % 0 mm 429.0 W/m2 CLR
09:55 -13.7 °C -17.1 °C 34544 hPa West 15.6 km/h 15.6 km/h 65 % 0 mm 445.0 W/m2 CLR
10:00 -13.7 °C -17 °C 34533.8 hPa West 23.8 km/h 23.8 km/h 66 % 0 mm 392.0 W/m2 CLR
10:05 -13.7 °C -17.2 °C 34544 hPa WNW 23.8 km/h 23.8 km/h 65 % 0 mm 422.0 W/m2 CLR
10:10 -13.7 °C -17.1 °C 34544 hPa WSW 23.8 km/h 23.8 km/h 65 % 0 mm 329.0 W/m2 CLR
10:15 -13.7 °C -17.1 °C 34544 hPa WSW 23.8 km/h 23.8 km/h 65 % 0 mm 341.0 W/m2 CLR
10:20 -13.6 °C -17.1 °C 34544 hPa West 10.3 km/h 11.1 km/h 65 % 0 mm 341.0 W/m2 CLR
10:25 -13.6 °C -17.1 °C 34544 hPa SW 29.8 km/h 29.8 km/h 64 % 0 mm 381.0 W/m2 CLR
10:30 -13.6 °C -17.1 °C 34544 hPa West 26.9 km/h 26.9 km/h 65 % 0 mm 374.0 W/m2 CLR
10:35 -13.5 °C -17.1 °C 34544 hPa WSW 23.8 km/h 23.8 km/h 64 % 0 mm 403.0 W/m2 CLR
10:40 -13.4 °C -17 °C 34533.8 hPa WNW 18.2 km/h 19.6 km/h 64 % 0 mm 369.0 W/m2 CLR
10:45 -13.4 °C -17.1 °C 34533.8 hPa WNW 26.9 km/h 26.9 km/h 63 % 0 mm 410.0 W/m2 CLR
10:50 -13.3 °C -17.1 °C 34533.8 hPa SSW 15 km/h 15 km/h 62 % 0 mm 473.0 W/m2 CLR
10:55 -13.2 °C -17.2 °C 34533.8 hPa WNW 26.9 km/h 26.9 km/h 61 % 0 mm 526.0 W/m2 CLR
11:00 -13 °C -17 °C 34533.8 hPa West 29.8 km/h 29.8 km/h 61 % 0 mm 617.0 W/m2 CLR
11:05 -12.9 °C -17.1 °C 34533.8 hPa West 29.8 km/h 29.8 km/h 59 % 0 mm 773.0 W/m2 CLR
11:10 -12.8 °C -16.9 °C 34533.8 hPa WSW 23.8 km/h 23.8 km/h 60 % 0 mm 744.0 W/m2 CLR
11:15 -12.7 °C -17.2 °C 34533.8 hPa West 20.9 km/h 20.9 km/h 57 % 0 mm 756.0 W/m2 CLR
11:20 -12.5 °C -16.7 °C 34533.8 hPa NW 23.8 km/h 23.8 km/h 59 % 0 mm 784.0 W/m2 CLR
11:25 -12.4 °C -17.2 °C 34533.8 hPa West 17.9 km/h 17.9 km/h 55 % 0 mm 789.0 W/m2 CLR
11:30 -12.3 °C -17.1 °C 34533.8 hPa West 29.8 km/h 29.8 km/h 55 % 0 mm 800.0 W/m2 CLR
11:35 -12.3 °C -17.1 °C 34533.8 hPa West 20.8 km/h 20.8 km/h 55 % 0 mm 816.0 W/m2 CLR
11:40 -12.2 °C -17.4 °C 34520.3 hPa West 23.8 km/h 23.8 km/h 52 % 0 mm 831.0 W/m2 CLR
11:45 -12.2 °C -17.4 °C 34520.3 hPa West 23.3 km/h 23.3 km/h 52 % 0 mm 824.0 W/m2 CLR
11:50 -12.1 °C -17.1 °C 34520.3 hPa WSW 6 km/h   54 % 0 mm 835.0 W/m2 CLR
11:55 -11.8 °C -16.9 °C 34520.3 hPa West 9 km/h 9 km/h 53 % 0 mm 846.0 W/m2 CLR
12:00 -11.8 °C -17.3 °C 34520.3 hPa SSW 3.1 km/h   50 % 0 mm 860.0 W/m2 CLR
12:05 -11.8 °C -17.3 °C 34520.3 hPa West 11.9 km/h 11.9 km/h 50 % 0 mm 867.0 W/m2 CLR
12:10 -11.7 °C -17.1 °C 34520.3 hPa WNW 9 km/h 9 km/h 51 % 0 mm 867.0 W/m2 CLR
12:15 -11.6 °C -17.1 °C 34520.3 hPa North 5.1 km/h 5.1 km/h 51 % 0 mm 865.0 W/m2 CLR
12:20 -11.4 °C -16.8 °C 34510.1 hPa West 20.8 km/h 20.8 km/h 51 % 0 mm 865.0 W/m2 CLR
12:25 -11.4 °C -16.9 °C 34510.1 hPa Calm     51 % 0 mm 868.0 W/m2 CLR
12:30 -11.4 °C -17.2 °C 34496.6 hPa NNW 6 km/h 6 km/h 49 % 0 mm 875.0 W/m2 CLR
12:35 -11.3 °C -16.6 °C 34496.6 hPa WNW 20.8 km/h 20.8 km/h 52 % 0 mm 881.0 W/m2 CLR
12:40 -11.2 °C -16.7 °C 34496.6 hPa Calm     51 % 0 mm 884.0 W/m2 CLR
12:45 -11.2 °C -17.1 °C 34496.6 hPa North 26.9 km/h 26.9 km/h 48 % 0 mm 888.0 W/m2 CLR
12:50 -11 °C -16.6 °C 34486.4 hPa West 3.1 km/h 3.1 km/h 50 % 0 mm 900.0 W/m2 CLR
12:55 -10.9 °C -16.8 °C 34486.4 hPa North 20.9 km/h 20.9 km/h 48 % 0 mm 902.0 W/m2 CLR
13:00 -10.9 °C -17.1 °C 34486.4 hPa NNW 18.2 km/h 18.2 km/h 47 % 0 mm 905.0 W/m2 CLR
13:05 -10.9 °C -17 °C 34486.4 hPa NNW 20.9 km/h 20.9 km/h 47 % 0 mm 911.0 W/m2 CLR
13:10 -10.9 °C -17.3 °C 34476.3 hPa Calm     45 % 0 mm 914.0 W/m2 CLR
13:15 -10.8 °C -17.1 °C 34476.3 hPa NNW 5.1 km/h 5.1 km/h 46 % 0 mm 916.0 W/m2 CLR
13:20 -10.7 °C -17.2 °C 34476.3 hPa ENE 6 km/h 6 km/h 45 % 0 mm 916.0 W/m2 CLR
13:25 -10.7 °C -17 °C 34476.3 hPa ENE 6 km/h 6 km/h 46 % 0 mm 919.0 W/m2 CLR
13:30 -10.7 °C -17.4 °C 34476.3 hPa NE 15 km/h 15 km/h 43 % 0 mm 921.0 W/m2 CLR
13:35 -10.7 °C -17.1 °C 34462.7 hPa Calm     45 % 0 mm 923.0 W/m2 CLR
13:40 -10.5 °C -17.2 °C 34462.7 hPa ENE 7.7 km/h 7.7 km/h 44 % 0 mm 925.0 W/m2 CLR
13:45 -10.2 °C -16.7 °C 34462.7 hPa NW 3.1 km/h 3.1 km/h 45 % 0 mm 923.0 W/m2 CLR
13:50 -10 °C -16.9 °C 34462.7 hPa WNW 6 km/h 6 km/h 43 % 0 mm 926.0 W/m2 CLR
13:55 -9.8 °C -17.1 °C 34452.6 hPa NW 23.8 km/h 23.8 km/h 41 % 0 mm 926.0 W/m2 CLR
14:00 -9.9 °C -17.1 °C 34452.6 hPa West 18.2 km/h 18.2 km/h 41 % 0 mm 928.0 W/m2 CLR
14:05 -9.9 °C -16.7 °C 34452.6 hPa ENE 49.2 km/h 49.2 km/h 44 % 0 mm 926.0 W/m2 CLR
14:10 -9.8 °C -17.1 °C 34452.6 hPa Calm     41 % 0 mm 926.0 W/m2 CLR
14:15 -9.7 °C -17 °C 34442.4 hPa NW 3.1 km/h   41 % 0 mm 926.0 W/m2 CLR
14:20 -9.6 °C -17.3 °C 34442.4 hPa NW 15 km/h 15 km/h 39 % 0 mm 925.0 W/m2 CLR
14:25 -9.7 °C -17.4 °C 34442.4 hPa West 11.9 km/h 11.9 km/h 39 % 0 mm 925.0 W/m2 CLR
14:30 -9.7 °C -17.6 °C 34442.4 hPa Calm     38 % 0 mm 918.0 W/m2 CLR
14:35 -9.7 °C -17.3 °C 34442.4 hPa ENE 3.1 km/h   39 % 0 mm 926.0 W/m2 CLR
14:40 -9.6 °C -17.2 °C 34442.4 hPa Calm     39 % 0 mm 916.0 W/m2 CLR
14:45 -9.4 °C -17.3 °C 34428.8 hPa WSW 9 km/h 9 km/h 38 % 0 mm 918.0 W/m2 CLR
14:50 -9.4 °C -17.3 °C 34428.8 hPa Calm     38 % 0 mm 909.0 W/m2 CLR
14:55 -9.3 °C -17.1 °C 34428.8 hPa ENE 44.1 km/h 44.1 km/h 39 % 0 mm 902.0 W/m2 CLR
15:00 -9.2 °C -17.1 °C 34428.8 hPa Calm     38 % 0 mm 900.0 W/m2 CLR
15:05 -9.1 °C -17.3 °C 34428.8 hPa NNE 29.8 km/h 29.8 km/h 37 % 0 mm 905.0 W/m2 CLR
15:10 -9.2 °C -17.2 °C 34428.8 hPa Calm     38 % 0 mm 884.0 W/m2 CLR
15:15 -9.1 °C -17.1 °C 34428.8 hPa Calm   1 km/h 38 % 0 mm 877.0 W/m2 CLR
15:20 -9.2 °C -17.3 °C 34428.8 hPa East 11.9 km/h 11.9 km/h 37 % 0 mm 872.0 W/m2 CLR
15:25 -9.4 °C -17.3 °C 34418.7 hPa ESE 3.1 km/h 3.1 km/h 38 % 0 mm 784.0 W/m2 CLR
15:30 -9.4 °C -17.1 °C 34418.7 hPa Calm     39 % 0 mm 744.0 W/m2 CLR
15:35 -9.3 °C -17.2 °C 34418.7 hPa Calm     38 % 0 mm 831.0 W/m2 CLR
15:40 -9.1 °C -17 °C 34418.7 hPa ENE 15 km/h 15 km/h 38 % 0 mm 844.0 W/m2 CLR
15:46 -9 °C -16.8 °C 34418.7 hPa ENE 6 km/h 6 km/h 39 % 0 mm 826.0 W/m2 CLR
15:51 -9 °C -17.1 °C 34405.1 hPa ESE 9 km/h   37 % 0 mm 812.0 W/m2 CLR
15:56 -9 °C -17.2 °C 34405.1 hPa North 7.7 km/h 7.7 km/h 37 % 0 mm 833.0 W/m2 CLR
16:01 -9 °C -17.1 °C 34405.1 hPa North 29.8 km/h 29.8 km/h 37 % 0 mm 780.0 W/m2 CLR
16:06 -9.1 °C -17.5 °C 34395 hPa NE 3.1 km/h   36 % 0 mm 795.0 W/m2 CLR
16:11 -9 °C -16.8 °C 34405.1 hPa NW 20.9 km/h 20.9 km/h 39 % 0 mm 795.0 W/m2 CLR
16:16 -8.8 °C -16.8 °C 34395 hPa NNE 9 km/h 9 km/h 38 % 0 mm 791.0 W/m2 CLR
16:21 -8.6 °C -16.8 °C 34395 hPa NNE 9 km/h 9 km/h 37 % 0 mm 775.0 W/m2 CLR
16:26 -8.6 °C -17 °C 34395 hPa Calm     36 % 0 mm 749.0 W/m2 CLR
16:31 -8.4 °C -16.8 °C 34395 hPa NE 25.9 km/h 25.9 km/h 36 % 0 mm 712.0 W/m2 CLR
16:36 -8.5 °C -16.9 °C 34395 hPa NE 20.9 km/h 20.9 km/h 36 % 0 mm 673.0 W/m2 CLR
16:41 -8.6 °C -16.6 °C 34395 hPa Calm   0.8 km/h 38 % 0 mm 675.0 W/m2 CLR
16:46 -8.5 °C -16.9 °C 34384.8 hPa ENE 20.8 km/h 20.9 km/h 36 % 0 mm 694.0 W/m2 CLR
16:51 -8.6 °C -16.8 °C 34384.8 hPa Calm     37 % 0 mm 668.0 W/m2 CLR
16:56 -8.6 °C -17.2 °C 34395 hPa ESE 15 km/h 15 km/h 35 % 0 mm 628.0 W/m2 CLR
17:01 -8.7 °C -17.1 °C 34384.8 hPa Calm     36 % 0 mm 670.0 W/m2 CLR
17:06 -8.8 °C -17.4 °C 34384.8 hPa Calm   0.3 km/h 35 % 0 mm 617.0 W/m2 CLR
17:11 -8.7 °C -16.9 °C 34384.8 hPa NNW 9 km/h   37 % 0 mm 671.0 W/m2 CLR
17:16 -8.6 °C -17 °C 34384.8 hPa NNE 31.1 km/h 31.1 km/h 36 % 0 mm 645.0 W/m2 CLR
17:21 -8.7 °C -17.3 °C 34384.8 hPa Calm     35 % 0 mm 640.0 W/m2 CLR
17:26 -8.6 °C -17 °C 34384.8 hPa Calm     36 % 0 mm 577.0 W/m2 CLR
17:27 -8.6 °C -17 °C 34384.8 hPa Calm     36 % 0 mm 577.0 W/m2 CLR
17:32 -8.4 °C -17.1 °C 34384.8 hPa NNW 9 km/h 9 km/h 35 % 0 mm 606.0 W/m2 CLR
17:37 -8.4 °C -17.1 °C 34384.8 hPa NNW 3.1 km/h   35 % 0 mm 564.0 W/m2 CLR
17:42 -8.5 °C -17.1 °C 34384.8 hPa NNE 15.6 km/h 15.6 km/h 35 % 0 mm 559.0 W/m2 CLR
17:47 -8.5 °C -17.1 °C 34384.8 hPa NNE 9 km/h 9 km/h 35 % 0 mm 538.0 W/m2 CLR
17:52 -8.4 °C -17.1 °C 34384.8 hPa NNE 9 km/h 9 km/h 35 % 0 mm 524.0 W/m2 CLR
17:57 -8.5 °C -17.1 °C 34384.8 hPa NNW 6 km/h 6 km/h 35 % 0 mm 476.0 W/m2 CLR
18:02 -8.4 °C -17.1 °C 34384.8 hPa Calm     35 % 0 mm 487.0 W/m2 CLR
18:07 -8.4 °C -17.3 °C 34384.8 hPa Calm     34 % 0 mm 476.0 W/m2 CLR
18:12 -8.6 °C -17.3 °C 34384.8 hPa East 9 km/h 9 km/h 35 % 0 mm 461.0 W/m2 CLR
18:17 -8.7 °C -17.3 °C 34384.8 hPa ENE 15 km/h   35 % 0 mm 434.0 W/m2 CLR
18:22 -8.7 °C -17.3 °C 34371.3 hPa NNE 15 km/h 15 km/h 35 % 0 mm 429.0 W/m2 CLR
18:27 -8.6 °C -17.2 °C 34371.3 hPa North 6 km/h 6 km/h 35 % 0 mm 373.0 W/m2 CLR
18:32 -8.4 °C -17.1 °C 34371.3 hPa North 9 km/h 9 km/h 35 % 0 mm 387.0 W/m2 CLR
18:37 -8.5 °C -17.1 °C 34371.3 hPa NNW 6 km/h 6 km/h 35 % 0 mm 378.0 W/m2 CLR
18:42 -8.4 °C -17.1 °C 34371.3 hPa ENE 7.7 km/h 7.7 km/h 35 % 0 mm 350.0 W/m2 CLR
18:47 -8.4 °C -17.3 °C 34371.3 hPa ENE 6 km/h 6 km/h 34 % 0 mm 352.0 W/m2 CLR
18:52 -8.4 °C -17.3 °C 34371.3 hPa North 3.1 km/h   34 % 0 mm 329.0 W/m2 CLR
18:57 -8.4 °C -17 °C 34371.3 hPa Calm     35 % 0 mm 318.0 W/m2 CLR
19:02 -8.3 °C -17.2 °C 34371.3 hPa NE 9 km/h 9 km/h 34 % 0 mm 278.0 W/m2 CLR
19:07 -8.4 °C -17.3 °C 34371.3 hPa East 9 km/h 9 km/h 34 % 0 mm 271.0 W/m2 CLR
19:12 -8.6 °C -17.2 °C 34371.3 hPa ENE 6 km/h 6 km/h 35 % 0 mm 260.0 W/m2 CLR
19:17 -8.6 °C -17 °C 34371.3 hPa NNE 9 km/h 9 km/h 36 % 0 mm 225.0 W/m2 CLR
19:22 -8.6 °C -17 °C 34371.3 hPa NNE 9 km/h 9 km/h 36 % 0 mm 223.0 W/m2 CLR
19:27 -8.5 °C -17.2 °C 34371.3 hPa NNE 9 km/h 9 km/h 35 % 0 mm 204.0 W/m2 CLR
19:32 -8.5 °C -17.2 °C 34371.3 hPa Calm     35 % 0 mm 185.0 W/m2 CLR
19:37 -8.5 °C -17.2 °C 34371.3 hPa North 9 km/h 9 km/h 35 % 0 mm 172.0 W/m2 CLR
19:42 -8.5 °C -17.2 °C 34371.3 hPa NE 9 km/h 9 km/h 35 % 0 mm 156.0 W/m2 CLR
19:47 -8.6 °C -17.3 °C 34371.3 hPa NNE 17.9 km/h 17.9 km/h 35 % 0 mm 134.0 W/m2 CLR
19:52 -8.7 °C -17.3 °C 34371.3 hPa NNE 9 km/h 9 km/h 35 % 0 mm 114.0 W/m2 CLR
19:57 -8.8 °C -17.2 °C 34384.8 hPa NNE 6 km/h 6 km/h 36 % 0 mm 95.0 W/m2 CLR
20:02 -8.8 °C -17.3 °C 34384.8 hPa ENE 6 km/h 6 km/h 36 % 0 mm 83.0 W/m2 FEW
20:07 -9.1 °C -16.5 °C 34384.8 hPa ESE 15 km/h 15 km/h 41 % 0 mm 67.0 W/m2 FEW
20:12 -9.3 °C -16.3 °C 34384.8 hPa ENE 15 km/h 15 km/h 43 % 0 mm 33.0 W/m2 BKN
20:17 -9.5 °C -16.2 °C 34384.8 hPa ESE 15 km/h 15 km/h 44 % 0 mm 30.0 W/m2 BKN
20:22 -9.6 °C -16.2 °C 34384.8 hPa SE 15 km/h 15 km/h 45 % 0 mm 26.0 W/m2 BKN
20:27 -9.7 °C -16.1 °C 34384.8 hPa SE 9 km/h 9 km/h 46 % 0 mm 23.0 W/m2 BKN
20:32 -9.7 °C -16.1 °C 34384.8 hPa SE 9 km/h 9 km/h 46 % 0 mm 19.0 W/m2 BKN
20:37 -9.8 °C -16.2 °C 34384.8 hPa SSE 9 km/h 9 km/h 46 % 0 mm 16.0 W/m2 BKN
20:42 -9.9 °C -15.9 °C 34395 hPa SSE 17.9 km/h 17.9 km/h 48 % 0 mm 12.0 W/m2 BKN
20:47 -10.1 °C -15.9 °C 34395 hPa SSE 11.9 km/h 11.9 km/h 49 % 0 mm 7.0 W/m2 BKN
20:52 -10.1 °C -15.8 °C 34395 hPa SSE 12.9 km/h 12.9 km/h 50 % 0 mm 0.0 W/m2 OVC
20:53 -10.2 °C -15.8 °C 34395 hPa SSE 15 km/h 15 km/h 50 % 0 mm 0.0 W/m2 OVC
20:58 -10.2 °C -15.8 °C 34395 hPa SE 9 km/h 9 km/h 51 % 0 mm 0.0 W/m2 OVC
21:04 -10.4 °C -15.7 °C 34405.1 hPa SE 9 km/h 9 km/h 52 % 0 mm 0.0 W/m2 CLR
21:09 -10.4 °C -15.7 °C 34405.1 hPa SSE 11.9 km/h 11.9 km/h 53 % 0 mm 0.0 W/m2 CLR
21:14 -10.6 °C -15.6 °C 34405.1 hPa SSE 9 km/h 9 km/h 54 % 0 mm 0.0 W/m2 CLR
21:19 -10.6 °C -15.5 °C 34405.1 hPa SSE 15 km/h 15 km/h 55 % 0 mm 0.0 W/m2 CLR
21:24 -10.7 °C -15.4 °C 34405.1 hPa SE 15 km/h 15 km/h 56 % 0 mm 0.0 W/m2 CLR
21:29 -10.7 °C -15.5 °C 34418.7 hPa SSE 11.9 km/h 11.9 km/h 56 % 0 mm 0.0 W/m2 CLR
21:34 -10.8 °C -15.4 °C 34418.7 hPa South 9 km/h 9 km/h 57 % 0 mm 0.0 W/m2 CLR
21:39 -10.9 °C -15.2 °C 34418.7 hPa SSE 17.9 km/h 17.9 km/h 59 % 0 mm 0.0 W/m2 CLR
21:44 -10.9 °C -15 °C 34418.7 hPa SSE 15 km/h 15 km/h 61 % 0 mm 0.0 W/m2 CLR
21:49 -10.9 °C -14.9 °C 34418.7 hPa SSE 17.9 km/h 17.9 km/h 62 % 0 mm 0.0 W/m2 CLR
21:54 -11 °C -14.9 °C 34418.7 hPa South 15 km/h 15 km/h 62 % 0 mm 0.0 W/m2 CLR
21:59 -11.1 °C -14.9 °C 34418.7 hPa South 20.9 km/h 20.9 km/h 63 % 0 mm 0.0 W/m2 CLR
22:04 -11.1 °C -14.9 °C 34418.7 hPa South 23.8 km/h 23.8 km/h 63 % 0 mm 0.0 W/m2 CLR
22:09 -11.2 °C -14.8 °C 34418.7 hPa South 18.2 km/h 18.2 km/h 64 % 0 mm 0.0 W/m2 CLR
22:14 -11.2 °C -14.9 °C 34418.7 hPa South 9 km/h 10.9 km/h 64 % 0 mm 0.0 W/m2 CLR
22:19 -11.3 °C -14.9 °C 34418.7 hPa South 11.9 km/h 11.9 km/h 64 % 0 mm 0.0 W/m2 CLR
22:24 -11.3 °C -14.9 °C 34418.7 hPa South 9 km/h 9 km/h 65 % 0 mm 0.0 W/m2 CLR
22:29 -11.4 °C -14.8 °C 34418.7 hPa South 9 km/h 9 km/h 66 % 0 mm 0.0 W/m2 CLR
22:34 -11.4 °C -14.8 °C 34428.8 hPa South 9 km/h 9 km/h 66 % 0 mm 0.0 W/m2 CLR
22:39 -11.5 °C -14.9 °C 34428.8 hPa SSW 9 km/h 9 km/h 66 % 0 mm 0.0 W/m2 CLR
22:44 -11.6 °C -14.8 °C 34428.8 hPa South 6 km/h 6 km/h 67 % 0 mm 0.0 W/m2 CLR
22:49 -11.6 °C -14.8 °C 34428.8 hPa Calm     67 % 0 mm 0.0 W/m2 CLR
22:54 -11.6 °C -14.9 °C 34428.8 hPa South 3.1 km/h 3.1 km/h 67 % 0 mm 0.0 W/m2 CLR
22:59 -11.7 °C -14.8 °C 34428.8 hPa Calm     68 % 0 mm 0.0 W/m2 CLR
23:04 -11.7 °C -14.9 °C 34442.4 hPa Calm     68 % 0 mm 0.0 W/m2 CLR
23:09 -11.8 °C -14.9 °C 34442.4 hPa Calm     68 % 0 mm 0.0 W/m2 CLR
23:14 -11.8 °C -15 °C 34442.4 hPa Calm     68 % 0 mm 0.0 W/m2 CLR
23:19 -12 °C -15.1 °C 34442.4 hPa Calm     69 % 0 mm 0.0 W/m2 CLR
23:24 -12.1 °C -15.1 °C 34442.4 hPa Calm     70 % 0 mm 0.0 W/m2 CLR
23:29 -12.2 °C -15 °C 34442.4 hPa Calm     71 % 0 mm 0.0 W/m2 CLR
23:34 -12.3 °C -15 °C 34442.4 hPa Calm     72 % 0 mm 0.0 W/m2 CLR
23:39 -12.4 °C -15.1 °C 34442.4 hPa Calm     72 % 0 mm 0.0 W/m2 CLR
23:44 -12.4 °C -15.1 °C 34442.4 hPa Calm     73 % 0 mm 0.0 W/m2 CLR
23:49 -12.6 °C -15.1 °C 34442.4 hPa Calm     73 % 0 mm 0.0 W/m2 CLR
23:54 -12.6 °C -15 °C 34442.4 hPa Calm     74 % 0 mm 0.0 W/m2 CLR
Lo Temps de Massalio
Compliments of Weather Underground - 1.25 mb